Главная страница
METAR-TAF:

METAR-TAF

Аэропорты :

Му-и-Рана, Норвегия

широта: 66-22N, долгота: 014-18E, высота над уровнем моря: 7 м

Текущие метеонаблюдения

Эта сводка был подготовлена 25 минут назад, в 19:20 UTC
Ветер 10 Узел от восточный
Температура -4°C
Влажность 58%
Давление 994 hPa
Видимость 10 км и более
небольшая облачность на высоте 5500 фута

METAR: ENRA 281920Z 08010KT 9999 FEW055 M04/M11 Q0994

Время: 20:45 (19:45 UTC)

Прогноз

Эта сводка был подготовлена 2 часа и 45 минут назад, в 17:00 UTC
Прогноз действительный с 28-го 18 UTC до 28-го 23 UTC
Ветер 9 Узел от восточно-северо-восточный
Видимость 10 км и более
Нет облачности ниже 1500 м, и нет кучево-дождевой облачности

TAF: ENRA 281700Z 2818/2823 07009KT CAVOK

Метеонаблюдения и прогнозы для более 4000 аэропортов (сводки METAR и TAF).

Имеющиеся станции представлены на карте желтыми и красными точками.

Чтобы увидеть название станции, наведите на нее мышь.

Затем щелкните, чтобы увидеть метеонаблюдения и метеопрогнозы.

Управление картой: чтобы увеличить масштаб, щелкните зеленые кнопки с черным крестиком; чтобы уменьшить масштаб, щелкните зеленую кнопку с тире; для просмотра соседних карт щелкайте зеленые стрелки.


METAR-TAF: